Time;durP1;ratioP1;P1;durP2;ratioP2;P2;SDS_P1;SDS_P2;PMS_P1;PMS_P2;Temp;Humidity;BMP_temperature;BMP_pressure;BME280_temperature;BME280_humidity;BME280_pressure;Samples;Min_cycle;Max_cycle;Signal;HPM_P1;HPM_P2
2022/11/20 00:01:25;;;;;;;16.33;13.57;;;1.10;99.90;;;;;;5057618;28;20052;-64
2022/11/20 00:03:53;;;;;;;15.60;11.82;;;1.10;99.90;;;;;;5056573;28;20524;-65
2022/11/20 00:06:20;;;;;;;12.88;10.90;;;1.10;99.90;;;;;;5037570;28;20041;-65
2022/11/20 00:08:46;;;;;;;14.35;11.73;;;1.10;99.90;;;;;;5055078;28;20761;-65
2022/11/20 00:11:15;;;;;;;16.30;11.57;;;1.20;99.90;;;;;;5056408;28;20048;-65
2022/11/20 00:13:42;;;;;;;14.85;11.75;;;1.20;99.90;;;;;;5039069;28;20036;-64
2022/11/20 00:16:10;;;;;;;18.02;11.38;;;1.10;99.90;;;;;;5021832;28;20504;-63
2022/11/20 00:18:36;;;;;;;13.93;11.65;;;1.10;99.90;;;;;;5055456;28;20300;-64
2022/11/20 00:21:11;;;;;;;14.68;11.57;;;1.10;99.90;;;;;;5039157;28;20279;-64
2022/11/20 00:23:37;;;;;;;14.63;11.65;;;1.20;99.90;;;;;;5056277;28;20578;-63
2022/11/20 00:26:05;;;;;;;13.48;10.85;;;1.10;99.90;;;;;;5055107;28;20357;-64
2022/11/20 00:28:31;;;;;;;13.27;11.05;;;1.20;99.90;;;;;;5057112;28;20460;-63
2022/11/20 00:31:09;;;;;;;14.73;11.75;;;1.20;99.90;;;;;;5055759;28;20033;-64
2022/11/20 00:33:35;;;;;;;15.30;10.88;;;1.10;99.90;;;;;;5057267;28;20063;-63
2022/11/20 00:36:07;;;;;;;14.80;12.43;;;1.10;99.90;;;;;;5039478;28;20040;-64
2022/11/20 00:38:33;;;;;;;15.55;12.20;;;1.20;99.90;;;;;;5055972;28;20063;-64
2022/11/20 00:41:00;;;;;;;14.85;12.57;;;1.10;99.90;;;;;;5053790;28;20040;-63
2022/11/20 00:43:27;;;;;;;14.40;12.30;;;1.00;99.90;;;;;;5026298;28;20052;-62
2022/11/20 00:46:00;;;;;;;15.88;11.18;;;1.00;99.90;;;;;;5004524;28;20527;-63
2022/11/20 00:48:26;;;;;;;15.95;13.32;;;1.00;99.90;;;;;;5057616;28;20036;-65
2022/11/20 00:50:53;;;;;;;15.95;12.30;;;1.00;99.90;;;;;;5056064;28;20051;-63
2022/11/20 00:53:19;;;;;;;17.42;12.68;;;1.00;99.90;;;;;;5055362;28;20052;-63
2022/11/20 00:55:59;;;;;;;16.30;11.93;;;0.90;99.90;;;;;;5037826;28;20161;-63
2022/11/20 00:58:29;;;;;;;16.50;12.65;;;0.90;99.90;;;;;;5054423;28;20946;-64
2022/11/20 01:01:04;;;;;;;14.75;11.77;;;0.90;99.90;;;;;;5016519;28;20049;-66
2022/11/20 01:03:39;;;;;;;14.02;11.30;;;0.90;99.90;;;;;;5036229;28;20048;-63
2022/11/20 01:06:14;;;;;;;14.75;11.85;;;0.90;99.90;;;;;;5037013;28;20155;-66
2022/11/20 01:08:40;;;;;;;15.63;11.77;;;0.90;99.90;;;;;;5034626;28;20044;-63
2022/11/20 01:11:10;;;;;;;13.85;11.73;;;0.90;99.90;;;;;;5036793;28;20096;-63
2022/11/20 01:13:37;;;;;;;14.95;11.55;;;1.00;99.90;;;;;;5031956;28;20049;-63
2022/11/20 01:16:14;;;;;;;15.52;11.05;;;0.90;99.90;;;;;;5035166;28;20076;-63
2022/11/20 01:18:43;;;;;;;14.50;11.73;;;0.90;99.90;;;;;;5034370;28;20350;-65
2022/11/20 01:21:15;;;;;;;18.52;12.13;;;1.00;99.90;;;;;;5032872;28;20044;-65
2022/11/20 01:23:42;;;;;;;15.50;12.60;;;0.90;99.90;;;;;;5031809;28;20041;-64
2022/11/20 01:26:10;;;;;;;15.32;12.75;;;0.90;99.90;;;;;;5035575;28;20036;-65
2022/11/20 01:28:39;;;;;;;15.95;11.98;;;1.00;99.90;;;;;;5033012;28;20196;-66
2022/11/20 01:31:12;;;;;;;15.55;12.77;;;0.90;99.90;;;;;;5015341;28;20045;-65
2022/11/20 01:33:38;;;;;;;13.95;11.52;;;0.90;99.90;;;;;;5033273;28;20137;-65
2022/11/20 01:36:05;;;;;;;14.63;11.98;;;0.80;99.90;;;;;;5034387;28;20056;-66
2022/11/20 01:38:31;;;;;;;17.30;13.07;;;0.80;99.90;;;;;;5033301;28;20048;-65
2022/11/20 01:40:57;;;;;;;15.50;13.07;;;0.90;99.90;;;;;;5032806;28;20048;-64
2022/11/20 01:43:23;;;;;;;17.73;13.80;;;0.90;99.90;;;;;;5033302;28;20174;-65
2022/11/20 01:46:18;;;;;;;18.20;13.07;;;0.90;99.90;;;;;;5016021;28;20041;-63
2022/11/20 01:49:10;;;;;;;16.20;13.07;;;0.90;99.90;;;;;;5034483;28;20044;-64
2022/11/20 01:51:50;;;;;;;15.70;12.73;;;0.80;99.90;;;;;;5016934;28;20045;-64
2022/11/20 01:54:37;;;;;;;16.58;13.40;;;0.80;99.90;;;;;;5032713;28;20045;-64
2022/11/20 01:57:06;;;;;;;17.58;13.50;;;0.80;99.90;;;;;;5035365;28;20036;-63
2022/11/20 01:59:33;;;;;;;15.50;12.23;;;0.80;99.90;;;;;;5031621;28;20053;-64
2022/11/20 02:01:58;;;;;;;15.85;12.75;;;0.90;99.90;;;;;;5015897;28;20416;-64
2022/11/20 02:04:25;;;;;;;16.45;13.20;;;0.90;99.90;;;;;;5033075;28;20106;-64
2022/11/20 02:06:59;;;;;;;14.15;10.23;;;0.80;99.90;;;;;;5016421;28;20045;-64
2022/11/20 02:09:24;;;;;;;13.70;11.93;;;0.90;99.90;;;;;;5031944;28;20753;-64
2022/11/20 02:11:51;;;;;;;17.08;12.23;;;0.80;99.90;;;;;;5033960;28;20486;-64
2022/11/20 02:14:17;;;;;;;15.20;11.98;;;0.80;99.90;;;;;;5035458;28;20068;-63
2022/11/20 02:16:47;;;;;;;14.13;11.70;;;0.80;99.90;;;;;;5032495;28;20120;-64
2022/11/20 02:19:26;;;;;;;14.38;11.98;;;0.80;99.90;;;;;;5031301;28;20053;-64
2022/11/20 02:22:14;;;;;;;16.20;11.90;;;0.90;99.90;;;;;;5018009;28;20529;-65
2022/11/20 02:24:41;;;;;;;14.43;11.20;;;0.90;99.90;;;;;;5040021;28;20374;-64
2022/11/20 02:27:10;;;;;;;13.80;11.55;;;0.90;99.90;;;;;;5033170;28;20036;-65
2022/11/20 02:29:51;;;;;;;12.75;11.18;;;0.90;99.90;;;;;;5034696;28;20605;-65
2022/11/20 02:32:29;;;;;;;14.75;11.98;;;0.90;99.90;;;;;;5030467;28;20048;-64
2022/11/20 02:34:55;;;;;;;17.05;11.90;;;0.90;99.90;;;;;;5031406;28;20041;-65
2022/11/20 02:37:21;;;;;;;15.10;12.27;;;0.80;99.90;;;;;;5032488;28;20121;-63
2022/11/20 02:39:49;;;;;;;13.95;11.70;;;0.80;99.90;;;;;;5033634;28;20457;-65
2022/11/20 02:42:15;;;;;;;14.85;11.57;;;0.80;99.90;;;;;;5037773;28;20142;-65
2022/11/20 02:44:41;;;;;;;14.20;11.73;;;0.70;99.90;;;;;;5041347;28;20037;-65
2022/11/20 02:47:07;;;;;;;16.42;12.95;;;0.80;99.90;;;;;;5021870;28;20043;-65
2022/11/20 02:49:33;;;;;;;14.70;12.30;;;0.70;99.90;;;;;;5038380;28;20059;-64
2022/11/20 02:51:59;;;;;;;15.45;12.70;;;0.90;99.90;;;;;;5040456;28;20041;-64
2022/11/20 02:54:24;;;;;;;17.17;13.02;;;0.80;99.90;;;;;;5040124;28;20583;-64
2022/11/20 02:56:50;;;;;;;16.00;13.18;;;0.80;99.90;;;;;;5038749;28;20147;-64
2022/11/20 02:59:16;;;;;;;15.13;12.90;;;0.70;99.90;;;;;;5041596;28;20048;-65
2022/11/20 03:01:41;;;;;;;19.65;12.90;;;0.70;99.90;;;;;;5061275;28;20052;-63
2022/11/20 03:04:07;;;;;;;15.57;12.88;;;0.70;99.90;;;;;;5039101;28;20044;-63
2022/11/20 03:06:33;;;;;;;18.08;12.40;;;0.70;99.90;;;;;;5060815;28;20550;-63
2022/11/20 03:08:59;;;;;;;14.57;12.57;;;0.80;99.90;;;;;;5026886;28;20829;-62
2022/11/20 03:11:24;;;;;;;16.83;12.43;;;0.70;99.90;;;;;;5060505;28;20051;-63
2022/11/20 03:13:50;;;;;;;15.27;12.15;;;0.80;99.90;;;;;;5060288;28;20051;-63
2022/11/20 03:16:19;;;;;;;15.43;12.32;;;0.70;99.90;;;;;;5043278;28;20377;-63
2022/11/20 03:18:45;;;;;;;15.50;11.65;;;0.80;99.90;;;;;;5041332;28;20070;-65
2022/11/20 03:21:12;;;;;;;14.35;11.63;;;0.80;99.90;;;;;;5041237;28;20040;-65
2022/11/20 03:23:39;;;;;;;13.68;11.30;;;0.80;99.90;;;;;;5062172;28;20039;-64
2022/11/20 03:26:20;;;;;;;13.68;11.32;;;0.90;99.90;;;;;;5043252;28;20111;-63
2022/11/20 03:28:57;;;;;;;12.23;10.43;;;0.80;99.90;;;;;;5060307;28;20560;-63
2022/11/20 03:31:25;;;;;;;13.35;9.48;;;0.90;99.90;;;;;;5060976;28;20084;-65
2022/11/20 03:33:51;;;;;;;11.80;9.63;;;0.90;99.90;;;;;;5060541;28;20391;-64
2022/11/20 03:36:18;;;;;;;13.38;10.93;;;0.90;99.90;;;;;;5014005;28;20134;-63
2022/11/20 03:38:44;;;;;;;13.13;10.48;;;0.90;99.90;;;;;;5042488;28;20105;-64
2022/11/20 03:41:22;;;;;;;12.05;10.55;;;1.00;99.90;;;;;;5043572;28;20049;-64
2022/11/20 03:43:53;;;;;;;12.98;10.85;;;0.90;99.90;;;;;;5060213;28;20037;-64
2022/11/20 03:46:20;;;;;;;11.55;9.75;;;0.90;99.90;;;;;;5062021;28;20047;-61
2022/11/20 03:48:46;;;;;;;12.55;9.27;;;1.00;99.90;;;;;;5061516;28;20037;-64
2022/11/20 03:51:13;;;;;;;12.65;9.90;;;0.90;99.90;;;;;;5039352;28;20048;-64
2022/11/20 03:53:40;;;;;;;11.55;9.45;;;0.90;99.90;;;;;;5024237;28;20048;-64
2022/11/20 03:56:07;;;;;;;11.77;8.35;;;0.90;99.90;;;;;;5040120;28;20047;-63
2022/11/20 03:58:37;;;;;;;11.18;8.82;;;0.90;99.90;;;;;;5038836;28;20044;-63
2022/11/20 04:01:07;;;;;;;10.63;9.02;;;0.90;99.90;;;;;;5056628;28;20053;-66
2022/11/20 04:03:33;;;;;;;12.13;9.85;;;0.90;99.90;;;;;;5030322;28;20482;-65
2022/11/20 04:06:15;;;;;;;11.02;9.13;;;0.90;99.90;;;;;;5038392;28;20268;-65
2022/11/20 04:08:41;;;;;;;11.18;9.80;;;0.80;99.90;;;;;;5056467;28;20127;-64
2022/11/20 04:11:19;;;;;;;12.10;10.27;;;1.00;99.90;;;;;;5057282;28;20368;-65
2022/11/20 04:13:52;;;;;;;12.80;10.23;;;1.00;99.90;;;;;;5056231;28;20037;-65
2022/11/20 04:16:19;;;;;;;11.90;9.27;;;0.90;99.90;;;;;;5057374;28;20037;-63
2022/11/20 04:18:45;;;;;;;13.68;9.70;;;0.70;99.90;;;;;;5056555;28;20106;-64
2022/11/20 04:21:11;;;;;;;10.48;8.38;;;0.80;99.90;;;;;;5057094;28;20045;-64
2022/11/20 04:23:37;;;;;;;12.00;9.50;;;0.80;99.90;;;;;;5036895;28;20036;-63
2022/11/20 04:26:08;;;;;;;12.95;9.88;;;0.70;99.90;;;;;;5057643;28;20028;-63
2022/11/20 04:28:34;;;;;;;12.35;10.13;;;0.80;99.90;;;;;;5038741;28;20542;-66
2022/11/20 04:31:06;;;;;;;11.50;9.77;;;0.70;99.90;;;;;;5038050;28;20041;-65
2022/11/20 04:33:32;;;;;;;11.07;9.38;;;0.80;99.90;;;;;;5038828;28;20051;-65
2022/11/20 04:36:11;;;;;;;11.10;9.65;;;0.90;99.90;;;;;;5039625;28;20052;-65
2022/11/20 04:38:37;;;;;;;10.50;9.07;;;0.90;99.90;;;;;;5052475;28;20041;-65
2022/11/20 04:41:05;;;;;;;12.15;9.20;;;0.80;99.90;;;;;;5037578;28;20405;-63
2022/11/20 04:43:31;;;;;;;11.20;8.82;;;0.90;99.90;;;;;;5056656;28;20047;-64
2022/11/20 04:45:58;;;;;;;11.05;8.68;;;0.90;99.90;;;;;;5055458;28;20036;-63
2022/11/20 04:48:26;;;;;;;10.90;9.15;;;0.90;99.90;;;;;;5056585;28;20132;-62
2022/11/20 04:50:52;;;;;;;10.98;9.52;;;0.90;99.90;;;;;;5056017;28;20631;-62
2022/11/20 04:53:19;;;;;;;11.60;8.95;;;0.90;99.90;;;;;;5055635;28;20054;-65
2022/11/20 04:55:45;;;;;;;9.68;8.27;;;0.90;99.90;;;;;;5036546;28;20094;-64
2022/11/20 04:58:11;;;;;;;10.57;9.05;;;0.90;99.90;;;;;;5037456;28;20045;-64
2022/11/20 05:00:36;;;;;;;10.63;8.70;;;0.90;99.90;;;;;;5053811;28;20052;-63
2022/11/20 05:03:02;;;;;;;12.75;9.43;;;0.90;99.90;;;;;;5055857;28;20036;-65
2022/11/20 05:05:28;;;;;;;9.70;8.10;;;0.90;99.90;;;;;;5026274;28;20512;-65
2022/11/20 05:07:57;;;;;;;9.85;8.15;;;0.90;99.90;;;;;;5037129;28;20486;-64
2022/11/20 05:10:23;;;;;;;12.00;8.35;;;0.90;99.90;;;;;;5036104;28;20094;-64
2022/11/20 05:12:49;;;;;;;9.88;7.68;;;0.90;99.90;;;;;;5021201;28;20040;-64
2022/11/20 05:15:15;;;;;;;8.73;7.38;;;0.80;99.90;;;;;;5037115;28;20391;-64
2022/11/20 05:17:40;;;;;;;10.02;7.28;;;0.80;99.90;;;;;;5037817;28;20656;-65
2022/11/20 05:20:07;;;;;;;8.70;7.80;;;0.90;99.90;;;;;;5056316;28;20036;-65
2022/11/20 05:22:32;;;;;;;9.50;7.50;;;0.80;99.90;;;;;;5004650;28;20051;-65
2022/11/20 05:24:58;;;;;;;9.38;7.47;;;0.80;99.90;;;;;;5054277;28;20044;-64
2022/11/20 05:27:24;;;;;;;9.07;7.50;;;0.80;99.90;;;;;;5012176;28;20044;-65
2022/11/20 05:29:49;;;;;;;8.82;7.63;;;0.90;99.90;;;;;;5038301;28;20571;-64
2022/11/20 05:32:15;;;;;;;10.38;7.63;;;1.00;99.90;;;;;;5054129;28;20276;-65
2022/11/20 05:34:40;;;;;;;8.60;7.70;;;1.00;99.90;;;;;;5037996;28;20502;-64
2022/11/20 05:37:06;;;;;;;9.75;7.45;;;1.00;99.90;;;;;;5038379;28;20055;-65
2022/11/20 05:39:32;;;;;;;11.25;7.88;;;1.00;99.90;;;;;;5036142;28;20041;-62
2022/11/20 05:44:42;;;;;;;9.75;7.80;;;1.00;99.90;;;;;;5037222;28;20528;-62
2022/11/20 05:47:07;;;;;;;10.95;8.18;;;1.00;99.90;;;;;;5036442;28;20052;-65
2022/11/20 05:49:33;;;;;;;11.35;8.73;;;1.00;99.90;;;;;;5055843;28;20127;-65
2022/11/20 05:51:59;;;;;;;11.52;9.55;;;1.00;99.90;;;;;;5038435;28;20043;-65
2022/11/20 05:54:24;;;;;;;12.05;9.35;;;1.10;99.90;;;;;;5036109;28;20468;-63
2022/11/20 05:56:50;;;;;;;10.55;9.15;;;1.10;99.90;;;;;;5053944;28;20076;-64
2022/11/20 05:59:15;;;;;;;12.07;9.40;;;1.10;99.90;;;;;;5052917;28;20113;-65
2022/11/20 06:01:41;;;;;;;13.00;10.43;;;1.10;99.90;;;;;;5037063;28;20420;-64
2022/11/20 06:04:07;;;;;;;12.55;10.80;;;1.10;99.90;;;;;;5053694;28;20049;-64
2022/11/20 06:06:33;;;;;;;13.18;10.48;;;1.10;99.90;;;;;;4988543;28;20042;-64
2022/11/20 06:08:58;;;;;;;12.18;10.43;;;1.10;99.90;;;;;;5054869;28;20174;-64
2022/11/20 06:11:25;;;;;;;13.20;10.32;;;1.10;99.90;;;;;;5035840;28;20040;-62
2022/11/20 06:13:51;;;;;;;14.93;10.43;;;1.10;99.90;;;;;;5052248;28;20573;-62
2022/11/20 06:16:20;;;;;;;12.38;10.52;;;1.10;99.90;;;;;;5055166;28;20131;-62
2022/11/20 06:18:46;;;;;;;11.95;10.25;;;1.10;99.90;;;;;;5036129;28;20041;-64
2022/11/20 06:21:22;;;;;;;14.02;11.20;;;1.10;99.90;;;;;;5036866;28;20323;-65
2022/11/20 06:23:49;;;;;;;15.80;13.20;;;1.10;99.90;;;;;;5055643;28;20056;-65
2022/11/20 06:26:20;;;;;;;13.55;11.32;;;1.10;99.90;;;;;;5035414;28;20128;-64
2022/11/20 06:28:46;;;;;;;12.20;10.85;;;1.10;99.90;;;;;;5035445;28;20040;-65
2022/11/20 06:31:14;;;;;;;16.17;11.35;;;1.10;99.90;;;;;;5019116;28;20049;-64
2022/11/20 06:33:40;;;;;;;12.40;10.82;;;1.10;99.90;;;;;;5034777;28;20049;-65
2022/11/20 06:36:06;;;;;;;16.13;11.93;;;1.10;99.90;;;;;;5053939;28;20047;-64
2022/11/20 06:38:32;;;;;;;16.40;13.80;;;1.10;99.90;;;;;;5036924;28;20041;-64
2022/11/20 06:40:57;;;;;;;16.25;13.55;;;1.10;99.90;;;;;;5052828;28;20684;-65
2022/11/20 06:43:24;;;;;;;14.57;12.95;;;1.10;99.90;;;;;;5003784;28;20642;-64
2022/11/20 06:45:54;;;;;;;22.63;16.88;;;1.10;99.90;;;;;;5034747;28;20703;-63
2022/11/20 06:48:21;;;;;;;15.55;12.48;;;1.10;99.90;;;;;;5054259;28;20122;-64
2022/11/20 06:50:46;;;;;;;14.00;11.65;;;1.20;99.90;;;;;;5054273;28;20040;-62
2022/11/20 06:53:12;;;;;;;16.63;12.10;;;1.20;99.90;;;;;;5036825;28;20057;-64
2022/11/20 06:55:43;;;;;;;13.88;11.43;;;1.20;99.90;;;;;;5035095;28;20170;-63
2022/11/20 06:58:09;;;;;;;14.43;11.48;;;1.10;99.90;;;;;;5034661;28;20048;-63
2022/11/20 07:00:35;;;;;;;13.60;11.65;;;1.20;99.90;;;;;;5053027;28;20063;-63
2022/11/20 07:03:04;;;;;;;14.00;11.60;;;1.20;99.90;;;;;;5054828;28;20243;-64
2022/11/20 07:05:30;;;;;;;13.10;10.60;;;1.10;99.90;;;;;;5052563;28;20105;-64
2022/11/20 07:07:59;;;;;;;12.93;11.07;;;1.20;99.90;;;;;;5036654;28;20040;-63
2022/11/20 07:10:25;;;;;;;13.02;11.23;;;1.20;99.90;;;;;;5055454;28;20079;-62
2022/11/20 07:12:52;;;;;;;15.75;12.27;;;1.20;99.90;;;;;;5053166;28;20107;-64
2022/11/20 07:15:19;;;;;;;13.50;11.90;;;1.20;99.90;;;;;;5055095;28;20441;-63
2022/11/20 07:17:45;;;;;;;14.00;11.77;;;1.20;99.90;;;;;;5052984;28;20039;-64
2022/11/20 07:20:11;;;;;;;14.75;11.27;;;1.30;99.90;;;;;;5034400;28;20080;-63
2022/11/20 07:22:37;;;;;;;17.70;11.88;;;1.30;99.90;;;;;;5037102;28;20095;-64
2022/11/20 07:25:03;;;;;;;14.07;11.82;;;1.30;99.90;;;;;;5053055;28;20037;-65
2022/11/20 07:27:29;;;;;;;14.40;11.57;;;1.30;99.90;;;;;;5033954;28;20051;-64
2022/11/20 07:29:55;;;;;;;13.65;10.93;;;1.30;99.90;;;;;;5023801;28;20465;-65
2022/11/20 07:32:20;;;;;;;15.15;11.70;;;1.30;99.90;;;;;;5055896;28;20498;-65
2022/11/20 07:34:46;;;;;;;13.77;11.40;;;1.30;99.90;;;;;;5057234;28;20068;-65
2022/11/20 07:37:12;;;;;;;15.00;11.70;;;1.30;99.90;;;;;;5058309;28;20738;-64
2022/11/20 07:39:38;;;;;;;15.27;12.13;;;1.30;99.90;;;;;;5056949;28;20040;-65
2022/11/20 07:42:03;;;;;;;14.43;11.32;;;1.30;99.90;;;;;;5039311;28;20429;-64
2022/11/20 07:44:29;;;;;;;13.95;12.45;;;1.30;99.90;;;;;;5039728;28;20033;-65
2022/11/20 07:46:55;;;;;;;14.18;11.77;;;1.30;99.90;;;;;;5041153;28;20040;-64
2022/11/20 07:49:20;;;;;;;13.32;11.55;;;1.30;99.90;;;;;;5022294;28;20488;-64
2022/11/20 07:51:46;;;;;;;14.18;12.68;;;1.30;99.90;;;;;;5055355;28;20705;-63
2022/11/20 07:54:12;;;;;;;14.38;12.52;;;1.20;99.90;;;;;;5039425;28;20134;-63
2022/11/20 07:56:37;;;;;;;14.95;12.38;;;1.30;99.90;;;;;;5040283;28;20043;-63
2022/11/20 07:59:03;;;;;;;13.80;11.75;;;1.20;99.90;;;;;;5037015;28;20041;-63
2022/11/20 08:01:29;;;;;;;16.10;13.38;;;1.30;99.90;;;;;;5057579;28;20599;-63
2022/11/20 08:03:54;;;;;;;14.43;12.80;;;1.30;99.90;;;;;;5055710;28;20040;-64
2022/11/20 08:06:20;;;;;;;15.25;12.00;;;1.30;99.90;;;;;;5036645;28;20127;-62
2022/11/20 08:08:46;;;;;;;16.50;13.50;;;1.40;99.90;;;;;;5055853;28;20430;-64
2022/11/20 08:14:13;;;;;;;17.88;14.48;;;1.50;99.90;;;;;;5036682;28;20052;-65
2022/11/20 08:16:47;;;;;;;17.17;14.13;;;1.40;99.90;;;;;;5039720;28;20090;-65
2022/11/20 08:19:14;;;;;;;;;;;1.50;99.90;;;;;;5039248;28;20040;-63
2022/11/20 08:21:40;;;;;;;16.58;13.35;;;1.50;99.90;;;;;;5034603;28;20273;-64
2022/11/20 08:24:07;;;;;;;15.20;13.32;;;1.40;99.90;;;;;;5021226;28;20095;-64
2022/11/20 08:26:33;;;;;;;17.58;13.20;;;1.40;99.90;;;;;;5020953;28;20072;-63
2022/11/20 08:28:59;;;;;;;14.65;12.43;;;1.50;99.90;;;;;;5020604;28;20119;-64
2022/11/20 08:31:27;;;;;;;14.50;12.32;;;1.50;99.90;;;;;;5054845;28;20045;-62
2022/11/20 08:33:53;;;;;;;13.68;11.55;;;1.60;99.90;;;;;;5016272;28;20127;-62
2022/11/20 08:36:20;;;;;;;15.27;12.93;;;1.60;99.90;;;;;;5053121;28;20044;-63
2022/11/20 08:38:50;;;;;;;13.68;11.20;;;1.70;99.90;;;;;;5054635;28;20036;-64
2022/11/20 08:41:26;;;;;;;14.38;11.43;;;1.70;99.90;;;;;;5021534;28;20040;-63
2022/11/20 08:43:58;;;;;;;11.70;10.15;;;1.60;99.90;;;;;;5057571;28;20125;-63
2022/11/20 08:46:33;;;;;;;13.15;10.75;;;1.80;99.90;;;;;;5040146;28;20048;-63
2022/11/20 08:48:59;;;;;;;13.10;10.88;;;1.70;99.90;;;;;;5060211;28;20132;-64
2022/11/20 08:51:24;;;;;;;14.13;10.95;;;1.90;99.90;;;;;;5023555;28;20135;-64
2022/11/20 08:53:50;;;;;;;14.15;12.48;;;1.90;99.90;;;;;;5057873;28;20083;-64
2022/11/20 08:56:17;;;;;;;13.55;12.13;;;1.80;99.90;;;;;;5060020;28;20055;-63
2022/11/20 08:58:43;;;;;;;14.65;12.73;;;1.80;99.90;;;;;;5059840;28;20037;-64
2022/11/20 09:01:09;;;;;;;14.18;12.68;;;1.70;99.90;;;;;;5057898;28;20060;-63
2022/11/20 09:03:34;;;;;;;16.23;13.77;;;1.80;99.90;;;;;;5041741;28;20117;-64
2022/11/20 09:06:03;;;;;;;15.10;12.77;;;1.90;99.90;;;;;;5025188;28;20036;-63
2022/11/20 09:08:29;;;;;;;12.80;11.40;;;1.80;99.90;;;;;;5055695;28;20075;-64
2022/11/20 09:10:55;;;;;;;13.45;12.05;;;2.00;99.90;;;;;;5040916;28;20076;-64
2022/11/20 09:13:22;;;;;;;12.77;11.38;;;2.10;99.90;;;;;;5059682;28;20089;-64
2022/11/20 09:15:59;;;;;;;15.45;12.63;;;2.00;99.90;;;;;;5039584;28;20482;-64
2022/11/20 09:18:27;;;;;;;14.05;11.77;;;2.20;99.90;;;;;;5041677;28;20095;-64
2022/11/20 09:20:57;;;;;;;13.20;11.60;;;2.20;99.90;;;;;;5059205;28;20112;-63
2022/11/20 09:23:23;;;;;;;13.63;11.23;;;2.20;99.90;;;;;;5037690;28;20551;-63
2022/11/20 09:25:48;;;;;;;13.68;11.38;;;2.20;99.90;;;;;;5041295;28;20044;-63
2022/11/20 09:28:14;;;;;;;12.25;10.95;;;2.20;99.90;;;;;;5041185;28;20048;-66
2022/11/20 09:30:40;;;;;;;15.13;11.20;;;2.20;99.90;;;;;;5057918;28;20263;-65
2022/11/20 09:33:09;;;;;;;12.80;10.80;;;2.30;99.90;;;;;;5039885;28;20036;-65
2022/11/20 09:35:35;;;;;;;14.38;11.60;;;2.20;99.90;;;;;;5024802;28;20051;-63
2022/11/20 09:38:07;;;;;;;12.23;9.93;;;2.20;99.90;;;;;;5024153;28;20040;-64
2022/11/20 09:40:35;;;;;;;11.73;9.98;;;2.40;99.90;;;;;;5055538;28;20079;-65
2022/11/20 09:43:28;;;;;;;10.38;8.95;;;2.30;99.90;;;;;;5041026;28;20044;-64
2022/11/20 09:46:02;;;;;;;11.05;9.30;;;2.40;99.90;;;;;;5058351;28;20040;-63
2022/11/20 09:48:43;;;;;;;10.63;9.52;;;2.40;99.90;;;;;;5057768;28;20098;-63
2022/11/20 09:51:34;;;;;;;10.15;9.02;;;2.40;99.90;;;;;;5057973;28;20047;-63
2022/11/20 09:54:18;;;;;;;12.88;9.85;;;2.50;99.90;;;;;;5039696;28;20215;-62
2022/11/20 09:56:49;;;;;;;11.38;10.18;;;2.50;99.90;;;;;;5038445;28;20040;-66
2022/11/20 09:59:27;;;;;;;20.63;9.35;;;2.80;99.90;;;;;;5023613;28;20072;-64
2022/11/20 10:01:55;;;;;;;11.65;10.30;;;2.70;99.90;;;;;;5056719;28;20063;-67
2022/11/20 10:04:21;;;;;;;9.50;8.23;;;2.80;99.90;;;;;;5040110;28;20044;-64
2022/11/20 10:07:00;;;;;;;11.93;9.68;;;2.80;99.90;;;;;;5039426;28;20123;-64
2022/11/20 10:09:35;;;;;;;14.18;9.88;;;2.80;99.90;;;;;;5039390;28;20071;-64
2022/11/20 10:12:10;;;;;;;13.23;10.32;;;2.90;99.90;;;;;;5055764;28;20052;-66
2022/11/20 10:14:38;;;;;;;10.43;9.00;;;3.00;99.90;;;;;;5058091;28;20050;-66
2022/11/20 10:17:17;;;;;;;10.15;9.15;;;3.00;99.90;;;;;;5039713;28;20036;-63
2022/11/20 10:20:11;;;;;;;11.38;10.00;;;3.10;99.90;;;;;;5039939;28;20486;-64
2022/11/20 10:22:47;;;;;;;10.55;9.35;;;3.00;99.90;;;;;;5040280;28;20048;-66
2022/11/20 10:25:19;;;;;;;11.60;9.75;;;3.10;99.90;;;;;;5056433;28;20048;-63
2022/11/20 10:28:03;;;;;;;11.13;9.95;;;3.10;99.90;;;;;;5037479;28;20046;-65
2022/11/20 10:30:30;;;;;;;;;;;3.10;99.90;;;;;;5023872;28;20109;-64
2022/11/20 10:33:05;;;;;;;13.38;10.60;;;3.10;99.90;;;;;;5038178;28;19971;-64
2022/11/20 10:35:40;;;;;;;11.75;10.25;;;2.90;99.90;;;;;;5058275;28;20119;-66
2022/11/20 10:38:15;;;;;;;12.98;10.00;;;2.90;99.90;;;;;;5057939;28;20040;-64
2022/11/20 10:40:45;;;;;;;10.80;9.63;;;3.00;99.90;;;;;;5037891;28;20044;-63
2022/11/20 10:43:23;;;;;;;11.65;9.95;;;3.00;99.90;;;;;;5055767;28;20045;-63
2022/11/20 10:46:03;;;;;;;12.05;10.23;;;3.10;99.90;;;;;;5023490;28;20454;-65
2022/11/20 10:48:31;;;;;;;11.35;9.77;;;3.10;99.90;;;;;;5038310;28;20568;-63
2022/11/20 10:51:06;;;;;;;12.13;9.60;;;3.10;99.90;;;;;;5058216;28;20045;-64
2022/11/20 10:54:11;;;;;;;13.07;10.00;;;3.20;99.90;;;;;;5057922;28;20044;-64
2022/11/20 10:56:45;;;;;;;11.25;9.45;;;3.30;99.90;;;;;;5010053;28;20564;-64
2022/11/20 10:59:23;;;;;;;;;;;3.40;99.90;;;;;;5037535;28;20498;-63
2022/11/20 11:01:48;;;;;;;10.05;8.63;;;3.40;99.90;;;;;;5040139;28;19920;-65
2022/11/20 11:04:32;;;;;;;11.55;9.05;;;3.60;99.90;;;;;;5042236;28;20055;-63
2022/11/20 11:07:21;;;;;;;;;;;3.70;99.90;;;;;;5044352;28;20289;-64
2022/11/20 11:09:55;;;;;;;10.57;9.48;;;3.80;99.90;;;;;;5019088;28;19924;-63
2022/11/20 11:12:24;;;;;;;10.38;9.27;;;4.00;99.90;;;;;;5042089;28;20055;-65
2022/11/20 11:14:52;;;;;;;10.00;8.75;;;4.20;99.90;;;;;;5040457;28;20097;-64
2022/11/20 11:17:27;;;;;;;10.80;9.65;;;4.20;99.90;;;;;;5043321;28;20056;-65
2022/11/20 11:20:14;;;;;;;10.40;9.32;;;4.30;99.90;;;;;;5041369;28;20745;-64
2022/11/20 11:22:47;;;;;;;10.48;9.48;;;4.40;99.90;;;;;;5061507;28;20588;-63
2022/11/20 11:25:35;;;;;;;9.82;8.80;;;4.30;99.90;;;;;;5061925;28;20668;-64
2022/11/20 11:28:18;;;;;;;9.50;8.60;;;4.30;99.90;;;;;;5041973;28;20067;-63
2022/11/20 11:30:45;;;;;;;10.13;8.82;;;4.20;99.90;;;;;;5041081;28;20519;-63
2022/11/20 11:33:18;;;;;;;9.63;8.63;;;4.10;99.90;;;;;;5061873;28;20253;-64
2022/11/20 11:35:53;;;;;;;11.27;9.35;;;4.10;99.90;;;;;;5060322;28;20135;-65
2022/11/20 11:38:36;;;;;;;10.60;9.43;;;4.10;99.90;;;;;;5026341;28;20081;-65
2022/11/20 11:41:04;;;;;;;9.65;8.57;;;4.20;99.90;;;;;;5061480;28;20055;-66
2022/11/20 11:46:34;;;;;;;9.32;8.38;;;4.20;99.90;;;;;;5041075;28;20048;-64
2022/11/20 11:49:08;;;;;;;9.40;8.30;;;4.10;99.90;;;;;;5042873;28;20048;-64
2022/11/20 11:51:56;;;;;;;9.38;8.40;;;4.10;99.90;;;;;;5041491;28;20153;-65
2022/11/20 11:54:38;;;;;;;8.90;8.00;;;4.20;99.90;;;;;;5042832;28;20048;-64
2022/11/20 11:57:11;;;;;;;9.30;8.00;;;4.20;99.90;;;;;;5043038;28;20303;-65
2022/11/20 11:59:46;;;;;;;10.55;8.25;;;4.20;99.90;;;;;;5041964;28;20053;-64
2022/11/20 12:02:42;;;;;;;10.43;8.65;;;4.10;99.90;;;;;;5058807;28;20053;-64
2022/11/20 12:05:24;;;;;;;9.93;8.07;;;4.20;99.90;;;;;;5042412;28;20044;-63
2022/11/20 12:08:01;;;;;;;11.00;8.70;;;4.10;99.90;;;;;;5025586;28;20040;-64
2022/11/20 12:10:53;;;;;;;10.80;9.20;;;4.00;99.90;;;;;;5060987;28;20049;-63
2022/11/20 12:13:34;;;;;;;10.10;8.88;;;4.10;99.90;;;;;;5040891;28;20530;-63
2022/11/20 12:16:01;;;;;;;10.80;9.70;;;4.20;99.90;;;;;;5025597;28;20045;-62
2022/11/20 12:18:28;;;;;;;10.65;9.13;;;4.20;99.90;;;;;;5057944;28;20490;-63
2022/11/20 12:20:56;;;;;;;10.43;9.30;;;4.30;99.90;;;;;;5059288;28;20052;-64
2022/11/20 12:23:30;;;;;;;10.23;9.13;;;4.20;99.90;;;;;;5060255;28;20037;-63
2022/11/20 12:26:03;;;;;;;12.27;9.68;;;4.10;99.90;;;;;;5060614;28;20114;-63
2022/11/20 12:29:03;;;;;;;11.20;9.98;;;3.90;99.90;;;;;;5059833;28;20041;-63
2022/11/20 12:31:54;;;;;;;10.30;9.18;;;3.80;99.90;;;;;;5042294;28;20389;-63
2022/11/20 12:34:27;;;;;;;10.18;8.95;;;3.70;99.90;;;;;;5057928;28;20105;-63
2022/11/20 12:37:13;;;;;;;9.73;7.85;;;3.60;99.90;;;;;;5058737;28;20077;-62
2022/11/20 12:39:48;;;;;;;8.95;7.78;;;3.60;99.90;;;;;;5025065;28;20071;-62
2022/11/20 12:45:49;;;;;;;9.20;8.27;;;4.00;99.90;;;;;;5058334;28;20063;-64
2022/11/20 12:48:17;;;;;;;9.30;8.25;;;3.90;99.90;;;;;;5060060;28;20123;-63
2022/11/20 12:50:55;;;;;;;9.68;8.20;;;3.90;99.90;;;;;;5039249;28;20051;-64
2022/11/20 12:53:40;;;;;;;7.93;7.10;;;3.90;99.90;;;;;;5040290;28;20048;-64
2022/11/20 12:56:23;;;;;;;8.45;7.50;;;3.90;99.90;;;;;;5059899;28;20572;-64
2022/11/20 12:59:09;;;;;;;8.52;7.63;;;3.80;99.90;;;;;;5041641;28;20478;-63
2022/11/20 13:02:19;;;;;;;9.00;8.10;;;3.80;99.90;;;;;;4989620;28;20082;-63
2022/11/20 13:05:11;;;;;;;10.32;7.50;;;3.60;99.90;;;;;;5056109;28;20039;-63
2022/11/20 13:07:37;;;;;;;8.88;7.38;;;3.50;99.90;;;;;;5037883;28;20130;-64
2022/11/20 13:10:05;;;;;;;8.05;7.03;;;3.30;99.90;;;;;;5038326;28;20417;-63
2022/11/20 13:12:46;;;;;;;8.50;7.65;;;3.30;99.90;;;;;;5057118;28;20051;-63